createdAt,value
2022-10-15T00:01:41.998Z,24.00
2022-10-15T00:04:45.366Z,20.00
2022-10-15T00:07:50.232Z,24.20
2022-10-15T00:10:53.470Z,20.00
2022-10-15T00:13:59.662Z,23.20
2022-10-15T00:17:02.947Z,22.00
2022-10-15T00:20:08.754Z,21.00
2022-10-15T00:23:13.845Z,22.20
2022-10-15T00:26:19.413Z,23.00
2022-10-15T00:29:22.600Z,22.00
2022-10-15T00:32:29.502Z,19.60
2022-10-15T00:35:32.760Z,20.80
2022-10-15T00:38:37.474Z,22.80
2022-10-15T00:41:44.170Z,20.00
2022-10-15T00:44:57.664Z,20.40
2022-10-15T00:48:01.823Z,20.80
2022-10-15T00:51:06.431Z,22.75
2022-10-15T00:54:13.129Z,19.40
2022-10-15T00:57:16.554Z,21.40
2022-10-15T01:00:20.449Z,22.00
2022-10-15T01:03:24.658Z,22.20
2022-10-15T01:06:28.496Z,23.20
2022-10-15T01:09:33.385Z,19.20
2022-10-15T01:12:57.937Z,23.40
2022-10-15T01:19:33.108Z,19.40
2022-10-15T01:22:58.303Z,18.00
2022-10-15T01:26:20.501Z,17.20
2022-10-15T01:29:48.797Z,20.00
2022-10-15T01:33:05.604Z,21.60
2022-10-15T01:36:17.320Z,19.60
2022-10-15T01:39:28.558Z,18.00
2022-10-15T01:42:39.642Z,19.40
2022-10-15T01:45:50.202Z,19.60
2022-10-15T01:49:15.315Z,19.00
2022-10-15T01:52:25.420Z,18.80
2022-10-15T01:55:28.850Z,21.00
2022-10-15T01:58:33.368Z,20.00
2022-10-15T02:01:36.641Z,20.80
2022-10-15T02:04:42.979Z,19.75
2022-10-15T02:07:54.274Z,21.00
2022-10-15T02:11:01.782Z,18.20
2022-10-15T02:14:15.779Z,18.00
2022-10-15T02:17:29.276Z,19.50
2022-10-15T02:20:43.169Z,22.00
2022-10-15T02:23:54.165Z,18.00
2022-10-15T02:27:03.199Z,22.00
2022-10-15T02:30:10.372Z,16.60
2022-10-15T02:33:15.110Z,18.00
2022-10-15T02:36:20.878Z,20.00
2022-10-15T02:39:25.937Z,20.00
2022-10-15T02:42:30.089Z,17.80
2022-10-15T02:45:33.841Z,19.60
2022-10-15T02:48:37.473Z,21.00
2022-10-15T02:51:42.481Z,22.00
2022-10-15T02:54:45.817Z,19.20
2022-10-15T02:57:49.499Z,20.40
2022-10-15T03:00:53.258Z,22.60
2022-10-15T03:03:56.598Z,30.80
2022-10-15T03:07:01.754Z,27.40
2022-10-15T03:10:07.345Z,29.20
2022-10-15T03:13:10.874Z,28.25
2022-10-15T03:16:21.560Z,31.75
2022-10-15T03:19:25.174Z,31.00
2022-10-15T03:22:31.115Z,32.00
2022-10-15T03:25:34.939Z,32.60
2022-10-15T03:28:40.975Z,33.60
2022-10-15T03:31:44.277Z,32.00
2022-10-15T03:34:47.729Z,26.60
2022-10-15T03:37:55.116Z,27.50
2022-10-15T03:40:59.192Z,27.00
2022-10-15T03:44:10.015Z,24.00
2022-10-15T03:47:17.792Z,25.00
2022-10-15T03:50:25.560Z,21.00
2022-10-15T03:53:30.401Z,23.00
2022-10-15T03:56:34.591Z,20.00
2022-10-15T03:59:54.368Z,22.00
2022-10-15T04:02:59.920Z,24.40
2022-10-15T04:06:05.345Z,23.00
2022-10-15T04:09:12.410Z,22.00
2022-10-15T04:12:16.477Z,22.00
2022-10-15T04:15:19.808Z,22.00
2022-10-15T04:18:33.170Z,22.40
2022-10-15T04:21:36.830Z,22.80
2022-10-15T04:24:43.131Z,20.50
2022-10-15T04:27:46.504Z,24.00
2022-10-15T04:30:53.303Z,21.00
2022-10-15T04:33:57.988Z,19.40
2022-10-15T04:37:01.933Z,22.00
2022-10-15T04:40:09.431Z,22.20
2022-10-15T04:43:12.773Z,21.50
2022-10-15T04:46:16.279Z,19.60
2022-10-15T04:49:19.581Z,21.80
2022-10-15T04:52:23.904Z,19.00
2022-10-15T04:55:33.017Z,20.40
2022-10-15T04:58:37.972Z,22.60
2022-10-15T05:01:42.001Z,19.75
2022-10-15T05:04:46.571Z,20.40
2022-10-15T05:07:49.971Z,19.25
2022-10-15T05:10:55.003Z,21.00
2022-10-15T05:14:00.009Z,19.40
2022-10-15T05:17:04.852Z,19.60
2022-10-15T05:20:14.129Z,21.00
2022-10-15T05:23:18.129Z,22.00
2022-10-15T05:26:33.373Z,18.00
2022-10-15T05:29:38.355Z,22.00
2022-10-15T05:32:41.706Z,20.00
2022-10-15T05:35:48.222Z,19.20
2022-10-15T05:38:54.145Z,25.00
2022-10-15T05:41:58.777Z,21.40
2022-10-15T05:45:24.038Z,18.25
2022-10-15T05:48:27.301Z,18.00
2022-10-15T05:51:30.795Z,20.00
2022-10-15T05:54:40.143Z,22.60
2022-10-15T05:57:44.795Z,16.20
2022-10-15T06:00:54.713Z,19.00
2022-10-15T06:03:58.209Z,19.60
2022-10-15T06:07:02.721Z,22.00
2022-10-15T06:10:06.722Z,18.40
2022-10-15T06:13:15.079Z,20.00
2022-10-15T06:16:23.596Z,18.40
2022-10-15T06:19:27.463Z,20.60
2022-10-15T06:22:32.207Z,17.00
2022-10-15T06:25:35.578Z,19.00
2022-10-15T06:28:40.759Z,22.50
2022-10-15T06:31:44.461Z,20.50
2022-10-15T06:34:47.869Z,18.00
2022-10-15T06:37:51.301Z,20.00
2022-10-15T06:40:54.501Z,20.40
2022-10-15T06:43:59.145Z,20.00
2022-10-15T06:47:02.990Z,16.40
2022-10-15T06:50:07.714Z,20.00
2022-10-15T06:53:13.379Z,23.00
2022-10-15T06:56:16.832Z,21.00
2022-10-15T06:59:23.040Z,19.75
2022-10-15T07:02:26.424Z,18.00
2022-10-15T07:05:29.878Z,20.00
2022-10-15T07:08:33.670Z,22.00
2022-10-15T07:11:37.019Z,21.00
2022-10-15T07:14:42.522Z,21.20
2022-10-15T07:17:50.147Z,17.75
2022-10-15T07:20:53.425Z,19.00
2022-10-15T07:23:56.656Z,20.60
2022-10-15T07:27:02.674Z,19.00
2022-10-15T07:30:13.235Z,20.50
2022-10-15T07:33:17.443Z,20.00
2022-10-15T07:36:30.055Z,20.20
2022-10-15T07:39:36.472Z,18.00
2022-10-15T07:42:42.386Z,19.00
2022-10-15T07:45:50.571Z,19.00
2022-10-15T07:48:54.226Z,23.20
2022-10-15T07:51:57.493Z,18.25
2022-10-15T07:55:01.157Z,19.00
2022-10-15T07:58:08.255Z,18.00
2022-10-15T08:01:12.902Z,18.60
2022-10-15T08:04:16.331Z,21.00
2022-10-15T08:07:21.572Z,18.60
2022-10-15T08:10:24.833Z,19.40
2022-10-15T08:13:28.108Z,20.00
2022-10-15T08:16:32.754Z,17.40
2022-10-15T08:19:36.037Z,19.00
2022-10-15T08:22:39.691Z,20.50
2022-10-15T08:25:43.261Z,16.20
2022-10-15T08:28:49.149Z,18.00
2022-10-15T08:31:54.052Z,18.00
2022-10-15T08:34:59.915Z,17.60
2022-10-15T08:38:08.775Z,18.40
2022-10-15T08:41:24.455Z,17.00
2022-10-15T08:44:31.209Z,18.60
2022-10-15T08:47:41.416Z,17.00
2022-10-15T08:50:53.290Z,16.80
2022-10-15T08:54:01.731Z,16.00
2022-10-15T08:57:17.275Z,17.00
2022-10-15T09:00:22.355Z,16.00
2022-10-15T09:03:37.828Z,15.00
2022-10-15T09:06:41.835Z,16.60
2022-10-15T09:09:50.163Z,15.40
2022-10-15T09:12:59.773Z,17.00
2022-10-15T09:16:06.886Z,17.00
2022-10-15T09:19:19.055Z,17.60
2022-10-15T09:22:25.882Z,16.20
2022-10-15T09:25:35.528Z,15.60
2022-10-15T09:28:46.385Z,18.60
2022-10-15T09:32:07.294Z,16.40
2022-10-15T09:35:18.288Z,15.00
2022-10-15T09:38:40.358Z,14.00
2022-10-15T09:41:54.782Z,15.00
2022-10-15T09:45:01.610Z,17.50
2022-10-15T09:48:16.109Z,17.60
2022-10-15T09:51:27.591Z,16.00
2022-10-15T09:54:43.824Z,14.00
2022-10-15T09:57:52.453Z,16.20
2022-10-15T10:01:01.986Z,15.20
2022-10-15T10:04:13.845Z,15.67
2022-10-15T10:07:33.400Z,16.00
2022-10-15T10:10:40.717Z,16.00
2022-10-15T10:13:51.915Z,17.00
2022-10-15T10:17:15.077Z,14.20
2022-10-15T10:20:21.188Z,16.60
2022-10-15T10:23:34.726Z,14.00
2022-10-15T10:26:37.985Z,17.25
2022-10-15T10:29:44.142Z,15.75
2022-10-15T10:32:48.530Z,16.00
2022-10-15T10:35:52.755Z,12.00
2022-10-15T10:39:02.500Z,15.60
2022-10-15T10:42:07.913Z,17.40
2022-10-15T10:45:21.690Z,14.00
2022-10-15T10:48:27.935Z,13.40
2022-10-15T10:51:31.170Z,14.80
2022-10-15T10:54:36.615Z,14.00
2022-10-15T10:57:47.891Z,17.60
2022-10-15T11:00:53.639Z,13.60
2022-10-15T11:03:57.174Z,13.75
2022-10-15T11:07:05.132Z,17.60
2022-10-15T11:10:19.671Z,16.00
2022-10-15T11:13:40.255Z,11.60
2022-10-15T11:16:54.953Z,11.20
2022-10-15T11:20:26.852Z,13.00
2022-10-15T11:23:43.571Z,15.00
2022-10-15T11:27:16.752Z,16.00
2022-10-15T11:30:35.865Z,14.25
2022-10-15T11:34:05.997Z,15.00
2022-10-15T11:37:25.567Z,13.00
2022-10-15T11:40:39.137Z,12.00
2022-10-15T11:43:59.263Z,12.40
2022-10-15T11:47:28.548Z,11.80
2022-10-15T11:50:36.724Z,13.75
2022-10-15T11:54:02.103Z,13.40
2022-10-15T11:57:06.330Z,13.40
2022-10-15T12:00:31.223Z,14.00
2022-10-15T12:03:40.854Z,15.50
2022-10-15T12:06:50.009Z,12.25
2022-10-15T12:09:57.089Z,14.00
2022-10-15T12:13:07.340Z,15.00
2022-10-15T12:16:25.239Z,11.80
2022-10-15T12:19:35.718Z,12.00
2022-10-15T12:22:41.543Z,11.20
2022-10-15T12:25:47.428Z,15.40
2022-10-15T12:28:53.727Z,12.60
2022-10-15T12:31:58.339Z,11.60
2022-10-15T12:35:06.138Z,13.00
2022-10-15T12:38:22.008Z,12.00
2022-10-15T12:41:38.091Z,15.40
2022-10-15T12:44:41.344Z,12.00
2022-10-15T12:47:50.750Z,14.00
2022-10-15T12:51:40.775Z,13.20
2022-10-15T12:54:46.358Z,13.00
2022-10-15T12:57:57.330Z,10.80
2022-10-15T13:01:07.890Z,12.00
2022-10-15T13:04:13.241Z,15.60
2022-10-15T13:07:16.650Z,12.50
2022-10-15T13:10:24.783Z,11.00
2022-10-15T13:13:31.020Z,13.40
2022-10-15T13:16:34.358Z,12.00
2022-10-15T13:19:42.127Z,11.75
2022-10-15T13:22:45.396Z,10.00
2022-10-15T13:25:49.319Z,11.00
2022-10-15T13:28:55.400Z,13.00
2022-10-15T13:31:59.127Z,10.20
2022-10-15T13:35:10.723Z,10.00
2022-10-15T13:38:22.875Z,14.00
2022-10-15T13:41:29.580Z,11.50
2022-10-15T13:44:35.605Z,11.25
2022-10-15T13:47:43.065Z,11.40
2022-10-15T13:50:49.896Z,11.25
2022-10-15T13:53:53.115Z,11.00
2022-10-15T13:56:59.039Z,11.00
2022-10-15T14:00:02.334Z,11.00
2022-10-15T14:03:18.191Z,12.80
2022-10-15T14:06:25.086Z,11.00
2022-10-15T14:09:32.272Z,11.00
2022-10-15T14:12:35.747Z,11.00
2022-10-15T14:15:58.627Z,8.80
2022-10-15T14:19:12.481Z,11.00
2022-10-15T14:22:20.182Z,13.00
2022-10-15T14:25:26.758Z,13.00
2022-10-15T14:28:33.538Z,13.00
2022-10-15T14:31:41.817Z,13.00
2022-10-15T14:34:45.103Z,14.00
2022-10-15T14:38:01.469Z,15.00
2022-10-15T14:41:09.341Z,13.00
2022-10-15T14:44:19.976Z,11.40
2022-10-15T14:47:25.982Z,9.80
2022-10-15T14:50:33.445Z,13.00
2022-10-15T14:53:45.830Z,12.00
2022-10-15T14:56:52.036Z,12.00
2022-10-15T14:59:57.488Z,10.40
2022-10-15T15:03:04.078Z,12.50
2022-10-15T15:06:07.758Z,13.00
2022-10-15T15:09:12.407Z,13.00
2022-10-15T15:12:24.280Z,12.20
2022-10-15T15:15:30.303Z,14.00
2022-10-15T15:18:33.815Z,15.40
2022-10-15T15:21:37.063Z,11.00
2022-10-15T15:24:41.888Z,11.20
2022-10-15T15:27:45.444Z,11.50
2022-10-15T15:30:56.228Z,12.20
2022-10-15T15:33:59.554Z,12.40
2022-10-15T15:37:02.886Z,11.00
2022-10-15T15:40:08.832Z,12.00
2022-10-15T15:43:14.984Z,12.00
2022-10-15T15:46:18.289Z,13.50
2022-10-15T15:49:21.824Z,12.60
2022-10-15T15:52:25.384Z,14.00
2022-10-15T15:55:30.610Z,13.80
2022-10-15T15:58:33.927Z,12.00
2022-10-15T16:01:37.262Z,12.20
2022-10-15T16:04:41.026Z,12.00
2022-10-15T16:07:44.545Z,14.00
2022-10-15T16:10:49.279Z,14.00
2022-10-15T16:13:53.134Z,13.00
2022-10-15T16:16:56.521Z,13.60
2022-10-15T16:19:59.878Z,15.00
2022-10-15T16:23:03.119Z,16.60
2022-10-15T16:26:07.736Z,16.00
2022-10-15T16:29:11.379Z,15.40
2022-10-15T16:32:14.833Z,15.00
2022-10-15T16:35:18.125Z,14.40
2022-10-15T16:38:21.403Z,14.20
2022-10-15T16:41:26.509Z,16.00
2022-10-15T16:44:29.772Z,13.75
2022-10-15T16:47:32.973Z,15.00
2022-10-15T16:50:36.306Z,13.60
2022-10-15T16:53:41.101Z,16.40
2022-10-15T16:56:49.130Z,15.00
2022-10-15T16:59:55.919Z,14.20
2022-10-15T17:03:02.721Z,16.00
2022-10-15T17:06:09.248Z,16.00
2022-10-15T17:09:12.952Z,15.25
2022-10-15T17:12:17.810Z,17.67
2022-10-15T17:15:21.229Z,13.75
2022-10-15T17:18:25.757Z,14.00
2022-10-15T17:21:30.639Z,14.75
2022-10-15T17:24:33.882Z,15.50
2022-10-15T17:27:38.474Z,15.40
2022-10-15T17:30:41.758Z,14.40
2022-10-15T17:33:46.191Z,15.40
2022-10-15T17:36:50.939Z,14.75
2022-10-15T17:39:54.250Z,14.80
2022-10-15T17:42:58.965Z,12.80
2022-10-15T17:46:02.928Z,15.00
2022-10-15T17:49:06.784Z,14.60
2022-10-15T17:52:10.755Z,14.60
2022-10-15T17:55:14.241Z,15.20
2022-10-15T17:58:20.465Z,16.00
2022-10-15T18:01:39.175Z,15.00
2022-10-15T18:04:48.696Z,15.00
2022-10-15T18:07:51.919Z,15.50
2022-10-15T18:10:55.155Z,16.00
2022-10-15T18:13:59.833Z,14.00
2022-10-15T18:17:03.139Z,16.00
2022-10-15T18:20:07.266Z,15.00
2022-10-15T18:23:11.152Z,14.33
2022-10-15T18:26:19.550Z,14.50
2022-10-15T18:29:25.525Z,14.00
2022-10-15T18:32:28.896Z,15.00
2022-10-15T18:35:35.280Z,16.00
2022-10-15T18:38:38.705Z,15.00
2022-10-15T18:41:41.968Z,18.40
2022-10-15T18:44:46.877Z,14.60
2022-10-15T18:47:50.135Z,15.40
2022-10-15T18:50:54.898Z,16.60
2022-10-15T18:53:58.496Z,15.00
2022-10-15T18:57:01.682Z,13.50
2022-10-15T19:00:08.032Z,18.50
2022-10-15T19:03:11.437Z,15.80
2022-10-15T19:06:14.692Z,18.00
2022-10-15T19:09:24.966Z,17.00
2022-10-15T19:12:28.551Z,18.40
2022-10-15T19:15:36.361Z,18.75
2022-10-15T19:18:39.616Z,17.75
2022-10-15T19:21:42.941Z,18.00
2022-10-15T19:24:46.593Z,16.00
2022-10-15T19:27:50.135Z,14.75
2022-10-15T19:30:59.202Z,16.80
2022-10-15T19:34:02.863Z,20.40
2022-10-15T19:37:07.967Z,15.00
2022-10-15T19:40:19.514Z,15.75
2022-10-15T19:43:23.734Z,17.00
2022-10-15T19:46:29.346Z,17.67
2022-10-15T19:49:33.950Z,17.00
2022-10-15T19:52:37.563Z,17.80
2022-10-15T19:55:41.853Z,14.00
2022-10-15T19:58:45.270Z,16.00
2022-10-15T20:01:49.944Z,18.80
2022-10-15T20:04:55.637Z,16.75
2022-10-15T20:07:59.356Z,18.00
2022-10-15T20:11:05.866Z,15.50
2022-10-15T20:14:09.037Z,20.00
2022-10-15T20:17:13.646Z,20.50
2022-10-15T20:20:17.023Z,22.25
2022-10-15T20:23:20.350Z,22.00
2022-10-15T20:26:23.995Z,18.60
2022-10-15T20:29:27.625Z,20.00
2022-10-15T20:32:35.747Z,19.00
2022-10-15T20:35:41.032Z,20.00
2022-10-15T20:38:45.343Z,19.00
2022-10-15T20:41:49.459Z,18.00
2022-10-15T20:44:53.140Z,20.80
2022-10-15T20:47:59.310Z,18.60
2022-10-15T20:51:02.671Z,19.50
2022-10-15T20:54:06.668Z,20.40
2022-10-15T20:57:11.445Z,19.80
2022-10-15T21:00:15.696Z,19.75
2022-10-15T21:03:20.402Z,19.00
2022-10-15T21:06:24.103Z,19.00
2022-10-15T21:09:27.678Z,21.00
2022-10-15T21:12:30.970Z,23.00
2022-10-15T21:15:34.631Z,21.00
2022-10-15T21:18:39.396Z,19.40
2022-10-15T21:21:42.832Z,20.00
2022-10-15T21:24:46.104Z,20.00
2022-10-15T21:27:49.344Z,22.00
2022-10-15T21:30:53.024Z,22.75
2022-10-15T21:33:58.251Z,23.40
2022-10-15T21:37:01.477Z,22.00
2022-10-15T21:40:06.416Z,19.50
2022-10-15T21:43:09.861Z,19.20
2022-10-15T21:46:14.751Z,19.80
2022-10-15T21:49:19.424Z,21.40
2022-10-15T21:52:22.681Z,19.50
2022-10-15T21:55:28.408Z,23.60
2022-10-15T21:58:33.987Z,18.00
2022-10-15T22:01:38.870Z,16.00
2022-10-15T22:04:43.556Z,19.00
2022-10-15T22:07:47.050Z,18.00
2022-10-15T22:10:50.376Z,17.40
2022-10-15T22:13:56.624Z,18.00
2022-10-15T22:17:00.186Z,19.00
2022-10-15T22:20:05.185Z,19.80
2022-10-15T22:23:08.355Z,17.00
2022-10-15T22:26:12.005Z,19.60
2022-10-15T22:29:19.595Z,17.40
2022-10-15T22:32:23.250Z,18.40
2022-10-15T22:35:28.528Z,20.00
2022-10-15T22:38:33.303Z,19.50
2022-10-15T22:41:39.738Z,17.00
2022-10-15T22:44:43.114Z,20.00
2022-10-15T22:47:46.560Z,19.60
2022-10-15T22:50:59.063Z,18.50
2022-10-15T22:54:02.981Z,18.60
2022-10-15T22:57:06.267Z,19.00
2022-10-15T23:00:11.100Z,19.80
2022-10-15T23:03:14.324Z,20.60
2022-10-15T23:06:20.307Z,19.00
2022-10-15T23:09:23.899Z,16.00
2022-10-15T23:12:27.593Z,23.00
2022-10-15T23:15:31.326Z,19.00
2022-10-15T23:18:34.863Z,19.20
2022-10-15T23:21:43.126Z,16.00
2022-10-15T23:24:46.343Z,18.00
2022-10-15T23:27:49.608Z,17.00
2022-10-15T23:30:52.954Z,19.00
2022-10-15T23:33:58.887Z,17.40
2022-10-15T23:37:03.565Z,16.00
2022-10-15T23:40:08.042Z,20.00
2022-10-15T23:43:11.444Z,16.00
2022-10-15T23:46:15.650Z,16.80
2022-10-15T23:49:19.056Z,16.60
2022-10-15T23:52:23.746Z,16.80
2022-10-15T23:55:27.225Z,19.00
2022-10-15T23:58:32.228Z,16.00
